sensor_id;sensor_type;location;lat;lon;timestamp;P1;durP1;ratioP1;P2;durP2;ratioP2
71806;SDS011;59655;42.590;23.364;2023-12-20T00:00:34;6.00;;;2.17;;
71806;SDS011;59655;42.590;23.364;2023-12-20T00:03:02;4.88;;;1.92;;
71806;SDS011;59655;42.590;23.364;2023-12-20T00:45:47;3.80;;;1.23;;
71806;SDS011;59655;42.590;23.364;2023-12-20T00:48:12;2.67;;;1.13;;
71806;SDS011;59655;42.590;23.364;2023-12-20T00:50:38;6.40;;;2.00;;
71806;SDS011;59655;42.590;23.364;2023-12-20T00:53:03;14.67;;;4.60;;
71806;SDS011;59655;42.590;23.364;2023-12-20T00:55:28;12.90;;;5.22;;
71806;SDS011;59655;42.590;23.364;2023-12-20T00:57:54;18.33;;;7.15;;
71806;SDS011;59655;42.590;23.364;2023-12-20T01:00:19;18.02;;;7.30;;
71806;SDS011;59655;42.590;23.364;2023-12-20T01:02:44;12.07;;;5.35;;
71806;SDS011;59655;42.590;23.364;2023-12-20T01:05:11;10.63;;;4.47;;
71806;SDS011;59655;42.590;23.364;2023-12-20T01:07:37;7.90;;;3.65;;
71806;SDS011;59655;42.590;23.364;2023-12-20T01:10:02;11.15;;;5.65;;
71806;SDS011;59655;42.590;23.364;2023-12-20T01:12:28;5.57;;;2.90;;
71806;SDS011;59655;42.590;23.364;2023-12-20T01:14:53;6.07;;;2.53;;
71806;SDS011;59655;42.590;23.364;2023-12-20T01:17:18;6.77;;;2.80;;
71806;SDS011;59655;42.590;23.364;2023-12-20T01:19:44;6.18;;;2.55;;
71806;SDS011;59655;42.590;23.364;2023-12-20T01:22:09;6.67;;;2.43;;
71806;SDS011;59655;42.590;23.364;2023-12-20T01:24:34;6.57;;;2.60;;
71806;SDS011;59655;42.590;23.364;2023-12-20T01:27:00;6.73;;;2.27;;
71806;SDS011;59655;42.590;23.364;2023-12-20T01:29:25;4.23;;;1.97;;
71806;SDS011;59655;42.590;23.364;2023-12-20T01:31:50;3.90;;;1.70;;
71806;SDS011;59655;42.590;23.364;2023-12-20T01:34:16;3.65;;;1.48;;
71806;SDS011;59655;42.590;23.364;2023-12-20T01:36:42;3.95;;;1.30;;
71806;SDS011;59655;42.590;23.364;2023-12-20T01:39:07;4.43;;;1.73;;
71806;SDS011;59655;42.590;23.364;2023-12-20T01:41:33;3.92;;;1.20;;
71806;SDS011;59655;42.590;23.364;2023-12-20T01:43:58;8.25;;;2.22;;
71806;SDS011;59655;42.590;23.364;2023-12-20T01:46:23;6.47;;;2.20;;
71806;SDS011;59655;42.590;23.364;2023-12-20T01:48:49;5.55;;;1.90;;
71806;SDS011;59655;42.590;23.364;2023-12-20T01:51:15;5.68;;;1.42;;
71806;SDS011;59655;42.590;23.364;2023-12-20T01:53:40;3.70;;;1.40;;
71806;SDS011;59655;42.590;23.364;2023-12-20T01:56:07;3.10;;;1.25;;
71806;SDS011;59655;42.590;23.364;2023-12-20T01:58:33;2.58;;;1.40;;
71806;SDS011;59655;42.590;23.364;2023-12-20T02:00:59;3.35;;;1.20;;
71806;SDS011;59655;42.590;23.364;2023-12-20T02:03:24;3.30;;;1.15;;
71806;SDS011;59655;42.590;23.364;2023-12-20T02:05:50;2.38;;;1.05;;
71806;SDS011;59655;42.590;23.364;2023-12-20T02:08:15;3.90;;;1.25;;
71806;SDS011;59655;42.590;23.364;2023-12-20T02:10:40;3.75;;;1.20;;
71806;SDS011;59655;42.590;23.364;2023-12-20T02:13:06;4.68;;;1.10;;
71806;SDS011;59655;42.590;23.364;2023-12-20T02:15:32;2.80;;;1.02;;
71806;SDS011;59655;42.590;23.364;2023-12-20T02:17:57;8.10;;;4.07;;
71806;SDS011;59655;42.590;23.364;2023-12-20T02:20:23;7.80;;;4.70;;
71806;SDS011;59655;42.590;23.364;2023-12-20T02:22:48;3.07;;;1.30;;
71806;SDS011;59655;42.590;23.364;2023-12-20T02:25:13;2.75;;;1.00;;
71806;SDS011;59655;42.590;23.364;2023-12-20T02:27:39;3.65;;;1.83;;
71806;SDS011;59655;42.590;23.364;2023-12-20T02:30:05;11.38;;;6.70;;
71806;SDS011;59655;42.590;23.364;2023-12-20T02:32:31;5.68;;;2.80;;
71806;SDS011;59655;42.590;23.364;2023-12-20T02:34:57;4.72;;;2.42;;
71806;SDS011;59655;42.590;23.364;2023-12-20T02:37:23;6.28;;;2.80;;
71806;SDS011;59655;42.590;23.364;2023-12-20T02:39:48;4.57;;;2.38;;
71806;SDS011;59655;42.590;23.364;2023-12-20T02:42:14;4.90;;;2.93;;
71806;SDS011;59655;42.590;23.364;2023-12-20T02:44:39;5.65;;;3.28;;
71806;SDS011;59655;42.590;23.364;2023-12-20T02:47:04;5.38;;;2.50;;
71806;SDS011;59655;42.590;23.364;2023-12-20T02:49:30;5.10;;;2.53;;
71806;SDS011;59655;42.590;23.364;2023-12-20T02:51:55;4.70;;;2.45;;
71806;SDS011;59655;42.590;23.364;2023-12-20T02:54:20;3.55;;;1.98;;
71806;SDS011;59655;42.590;23.364;2023-12-20T02:56:46;3.85;;;2.10;;
71806;SDS011;59655;42.590;23.364;2023-12-20T02:59:12;4.57;;;2.67;;
71806;SDS011;59655;42.590;23.364;2023-12-20T03:01:43;4.73;;;2.70;;
71806;SDS011;59655;42.590;23.364;2023-12-20T03:04:10;2.60;;;1.25;;
71806;SDS011;59655;42.590;23.364;2023-12-20T03:06:35;3.08;;;1.50;;
71806;SDS011;59655;42.590;23.364;2023-12-20T03:09:00;4.97;;;2.00;;
71806;SDS011;59655;42.590;23.364;2023-12-20T03:11:26;2.67;;;1.23;;
71806;SDS011;59655;42.590;23.364;2023-12-20T03:13:52;2.63;;;1.10;;
71806;SDS011;59655;42.590;23.364;2023-12-20T03:16:18;3.03;;;0.90;;
71806;SDS011;59655;42.590;23.364;2023-12-20T03:18:43;2.88;;;1.40;;
71806;SDS011;59655;42.590;23.364;2023-12-20T03:21:09;6.25;;;3.30;;
71806;SDS011;59655;42.590;23.364;2023-12-20T03:23:34;3.00;;;1.23;;
71806;SDS011;59655;42.590;23.364;2023-12-20T03:25:59;5.97;;;2.73;;
71806;SDS011;59655;42.590;23.364;2023-12-20T03:28:26;6.38;;;3.85;;
71806;SDS011;59655;42.590;23.364;2023-12-20T03:30:51;6.43;;;4.07;;
71806;SDS011;59655;42.590;23.364;2023-12-20T03:33:17;4.03;;;2.17;;
71806;SDS011;59655;42.590;23.364;2023-12-20T03:35:42;2.70;;;1.33;;
71806;SDS011;59655;42.590;23.364;2023-12-20T03:38:08;4.38;;;1.75;;
71806;SDS011;59655;42.590;23.364;2023-12-20T03:40:33;3.95;;;2.00;;
71806;SDS011;59655;42.590;23.364;2023-12-20T03:42:59;4.05;;;1.50;;
71806;SDS011;59655;42.590;23.364;2023-12-20T03:45:24;6.45;;;3.08;;
71806;SDS011;59655;42.590;23.364;2023-12-20T03:47:49;5.25;;;2.72;;
71806;SDS011;59655;42.590;23.364;2023-12-20T03:50:20;4.97;;;1.80;;
71806;SDS011;59655;42.590;23.364;2023-12-20T03:52:45;4.60;;;1.50;;
71806;SDS011;59655;42.590;23.364;2023-12-20T03:55:11;4.95;;;1.92;;
71806;SDS011;59655;42.590;23.364;2023-12-20T03:57:36;6.57;;;2.63;;
71806;SDS011;59655;42.590;23.364;2023-12-20T04:00:01;3.92;;;1.92;;
71806;SDS011;59655;42.590;23.364;2023-12-20T04:02:27;5.82;;;2.90;;
71806;SDS011;59655;42.590;23.364;2023-12-20T04:04:52;15.47;;;7.07;;
71806;SDS011;59655;42.590;23.364;2023-12-20T04:07:18;11.07;;;4.82;;
71806;SDS011;59655;42.590;23.364;2023-12-20T04:09:43;7.32;;;2.70;;
71806;SDS011;59655;42.590;23.364;2023-12-20T04:12:08;7.10;;;2.42;;
71806;SDS011;59655;42.590;23.364;2023-12-20T04:14:34;5.53;;;3.30;;
71806;SDS011;59655;42.590;23.364;2023-12-20T04:16:59;6.13;;;3.35;;
71806;SDS011;59655;42.590;23.364;2023-12-20T04:19:24;7.00;;;3.15;;
71806;SDS011;59655;42.590;23.364;2023-12-20T04:21:50;5.10;;;2.33;;
71806;SDS011;59655;42.590;23.364;2023-12-20T04:24:15;8.60;;;4.78;;
71806;SDS011;59655;42.590;23.364;2023-12-20T04:26:40;9.43;;;4.55;;
71806;SDS011;59655;42.590;23.364;2023-12-20T04:29:06;8.60;;;2.80;;
71806;SDS011;59655;42.590;23.364;2023-12-20T04:31:31;7.53;;;2.70;;
71806;SDS011;59655;42.590;23.364;2023-12-20T04:33:56;5.83;;;2.43;;
71806;SDS011;59655;42.590;23.364;2023-12-20T04:36:22;9.90;;;3.70;;
71806;SDS011;59655;42.590;23.364;2023-12-20T04:38:47;6.20;;;3.28;;
71806;SDS011;59655;42.590;23.364;2023-12-20T04:41:12;6.40;;;2.87;;
71806;SDS011;59655;42.590;23.364;2023-12-20T04:43:40;5.38;;;2.03;;
71806;SDS011;59655;42.590;23.364;2023-12-20T04:46:06;4.93;;;1.80;;
71806;SDS011;59655;42.590;23.364;2023-12-20T04:48:31;4.05;;;1.63;;
71806;SDS011;59655;42.590;23.364;2023-12-20T04:50:56;3.43;;;1.80;;
71806;SDS011;59655;42.590;23.364;2023-12-20T04:53:22;7.55;;;3.45;;
71806;SDS011;59655;42.590;23.364;2023-12-20T04:55:48;7.05;;;3.60;;
71806;SDS011;59655;42.590;23.364;2023-12-20T04:58:13;6.23;;;2.33;;
71806;SDS011;59655;42.590;23.364;2023-12-20T05:00:38;9.65;;;2.70;;
71806;SDS011;59655;42.590;23.364;2023-12-20T05:03:04;8.83;;;2.50;;
71806;SDS011;59655;42.590;23.364;2023-12-20T05:05:29;5.88;;;2.47;;
71806;SDS011;59655;42.590;23.364;2023-12-20T05:07:54;9.53;;;2.80;;
71806;SDS011;59655;42.590;23.364;2023-12-20T05:10:20;9.27;;;2.60;;
71806;SDS011;59655;42.590;23.364;2023-12-20T05:12:45;7.70;;;3.23;;
71806;SDS011;59655;42.590;23.364;2023-12-20T05:15:10;9.47;;;3.00;;
71806;SDS011;59655;42.590;23.364;2023-12-20T05:17:36;9.10;;;2.70;;
71806;SDS011;59655;42.590;23.364;2023-12-20T05:20:01;7.95;;;2.72;;
71806;SDS011;59655;42.590;23.364;2023-12-20T05:22:27;6.72;;;2.55;;
71806;SDS011;59655;42.590;23.364;2023-12-20T05:24:52;7.38;;;2.58;;
71806;SDS011;59655;42.590;23.364;2023-12-20T05:27:18;6.25;;;2.80;;
71806;SDS011;59655;42.590;23.364;2023-12-20T05:29:43;7.78;;;2.70;;
71806;SDS011;59655;42.590;23.364;2023-12-20T05:32:08;7.47;;;2.80;;
71806;SDS011;59655;42.590;23.364;2023-12-20T05:34:35;8.40;;;3.83;;
71806;SDS011;59655;42.590;23.364;2023-12-20T05:37:00;15.40;;;5.17;;
71806;SDS011;59655;42.590;23.364;2023-12-20T05:39:26;17.92;;;9.82;;
71806;SDS011;59655;42.590;23.364;2023-12-20T05:41:52;17.23;;;9.40;;
71806;SDS011;59655;42.590;23.364;2023-12-20T05:44:17;16.73;;;7.10;;
71806;SDS011;59655;42.590;23.364;2023-12-20T05:46:42;17.50;;;6.22;;
71806;SDS011;59655;42.590;23.364;2023-12-20T05:49:08;15.77;;;7.18;;
71806;SDS011;59655;42.590;23.364;2023-12-20T05:51:34;12.95;;;5.25;;
71806;SDS011;59655;42.590;23.364;2023-12-20T05:53:59;13.73;;;6.33;;
71806;SDS011;59655;42.590;23.364;2023-12-20T05:56:24;15.47;;;5.90;;
71806;SDS011;59655;42.590;23.364;2023-12-20T05:58:50;17.63;;;5.60;;
71806;SDS011;59655;42.590;23.364;2023-12-20T06:01:15;9.95;;;4.22;;
71806;SDS011;59655;42.590;23.364;2023-12-20T06:03:44;13.35;;;4.45;;
71806;SDS011;59655;42.590;23.364;2023-12-20T06:06:11;7.53;;;2.97;;
71806;SDS011;59655;42.590;23.364;2023-12-20T06:08:36;6.95;;;2.55;;
71806;SDS011;59655;42.590;23.364;2023-12-20T06:11:01;10.63;;;6.57;;
71806;SDS011;59655;42.590;23.364;2023-12-20T06:13:27;11.50;;;5.90;;
71806;SDS011;59655;42.590;23.364;2023-12-20T06:15:54;11.40;;;6.38;;
71806;SDS011;59655;42.590;23.364;2023-12-20T06:18:20;9.10;;;4.47;;
71806;SDS011;59655;42.590;23.364;2023-12-20T06:20:45;14.93;;;8.70;;
71806;SDS011;59655;42.590;23.364;2023-12-20T06:23:11;10.93;;;5.13;;
71806;SDS011;59655;42.590;23.364;2023-12-20T06:25:36;6.93;;;4.23;;
71806;SDS011;59655;42.590;23.364;2023-12-20T06:28:01;19.37;;;11.30;;
71806;SDS011;59655;42.590;23.364;2023-12-20T06:30:27;30.92;;;15.48;;
71806;SDS011;59655;42.590;23.364;2023-12-20T06:32:53;26.17;;;14.90;;
71806;SDS011;59655;42.590;23.364;2023-12-20T06:35:19;26.60;;;14.43;;
71806;SDS011;59655;42.590;23.364;2023-12-20T06:37:44;25.50;;;15.30;;
71806;SDS011;59655;42.590;23.364;2023-12-20T06:40:10;24.02;;;14.32;;
71806;SDS011;59655;42.590;23.364;2023-12-20T06:42:36;25.55;;;15.80;;
71806;SDS011;59655;42.590;23.364;2023-12-20T06:45:01;21.20;;;13.93;;
71806;SDS011;59655;42.590;23.364;2023-12-20T06:47:27;21.13;;;12.93;;
71806;SDS011;59655;42.590;23.364;2023-12-20T06:49:52;15.10;;;9.00;;
71806;SDS011;59655;42.590;23.364;2023-12-20T06:52:17;17.58;;;10.00;;
71806;SDS011;59655;42.590;23.364;2023-12-20T06:54:43;18.13;;;10.15;;
71806;SDS011;59655;42.590;23.364;2023-12-20T06:57:09;29.60;;;15.02;;
71806;SDS011;59655;42.590;23.364;2023-12-20T06:59:38;46.38;;;21.33;;
71806;SDS011;59655;42.590;23.364;2023-12-20T07:02:06;72.75;;;28.77;;
71806;SDS011;59655;42.590;23.364;2023-12-20T07:04:33;75.03;;;28.92;;
71806;SDS011;59655;42.590;23.364;2023-12-20T07:06:58;79.82;;;29.52;;
71806;SDS011;59655;42.590;23.364;2023-12-20T07:09:25;76.97;;;30.23;;
71806;SDS011;59655;42.590;23.364;2023-12-20T07:11:51;71.22;;;29.15;;
71806;SDS011;59655;42.590;23.364;2023-12-20T07:14:16;65.88;;;28.70;;
71806;SDS011;59655;42.590;23.364;2023-12-20T07:16:42;64.50;;;30.42;;
71806;SDS011;59655;42.590;23.364;2023-12-20T07:19:07;66.07;;;30.67;;
71806;SDS011;59655;42.590;23.364;2023-12-20T07:21:32;66.63;;;30.93;;
71806;SDS011;59655;42.590;23.364;2023-12-20T07:23:58;95.00;;;44.65;;
71806;SDS011;59655;42.590;23.364;2023-12-20T07:26:23;89.75;;;40.15;;
71806;SDS011;59655;42.590;23.364;2023-12-20T07:28:48;85.50;;;35.17;;
71806;SDS011;59655;42.590;23.364;2023-12-20T07:31:17;78.25;;;32.30;;
71806;SDS011;59655;42.590;23.364;2023-12-20T07:33:43;90.50;;;52.42;;
71806;SDS011;59655;42.590;23.364;2023-12-20T07:36:09;106.07;;;47.35;;
71806;SDS011;59655;42.590;23.364;2023-12-20T07:38:34;120.13;;;57.65;;
71806;SDS011;59655;42.590;23.364;2023-12-20T07:41:00;136.23;;;75.82;;
71806;SDS011;59655;42.590;23.364;2023-12-20T07:43:25;113.95;;;57.78;;
71806;SDS011;59655;42.590;23.364;2023-12-20T07:45:50;109.60;;;51.67;;
71806;SDS011;59655;42.590;23.364;2023-12-20T07:48:16;110.25;;;47.03;;
71806;SDS011;59655;42.590;23.364;2023-12-20T07:50:41;96.50;;;41.47;;
71806;SDS011;59655;42.590;23.364;2023-12-20T07:53:07;100.18;;;40.63;;
71806;SDS011;59655;42.590;23.364;2023-12-20T07:55:33;90.72;;;38.85;;
71806;SDS011;59655;42.590;23.364;2023-12-20T07:57:59;90.80;;;37.35;;
71806;SDS011;59655;42.590;23.364;2023-12-20T08:00:25;87.75;;;37.53;;
71806;SDS011;59655;42.590;23.364;2023-12-20T08:02:50;84.03;;;35.50;;
71806;SDS011;59655;42.590;23.364;2023-12-20T08:05:15;76.85;;;33.35;;
71806;SDS011;59655;42.590;23.364;2023-12-20T08:07:40;72.13;;;30.77;;
71806;SDS011;59655;42.590;23.364;2023-12-20T08:10:06;68.17;;;29.87;;
71806;SDS011;59655;42.590;23.364;2023-12-20T08:12:32;71.07;;;31.27;;
71806;SDS011;59655;42.590;23.364;2023-12-20T08:14:58;62.85;;;28.70;;
71806;SDS011;59655;42.590;23.364;2023-12-20T08:17:24;48.50;;;21.95;;
71806;SDS011;59655;42.590;23.364;2023-12-20T08:19:49;50.70;;;22.50;;
71806;SDS011;59655;42.590;23.364;2023-12-20T08:22:14;75.82;;;31.42;;
71806;SDS011;59655;42.590;23.364;2023-12-20T08:24:40;82.10;;;36.30;;
71806;SDS011;59655;42.590;23.364;2023-12-20T08:27:05;82.60;;;36.75;;
71806;SDS011;59655;42.590;23.364;2023-12-20T08:29:30;72.75;;;33.00;;
71806;SDS011;59655;42.590;23.364;2023-12-20T08:31:56;62.45;;;29.88;;
71806;SDS011;59655;42.590;23.364;2023-12-20T08:34:22;59.70;;;25.88;;
71806;SDS011;59655;42.590;23.364;2023-12-20T08:36:48;62.95;;;26.48;;
71806;SDS011;59655;42.590;23.364;2023-12-20T08:39:16;66.93;;;27.02;;
71806;SDS011;59655;42.590;23.364;2023-12-20T08:41:42;63.30;;;26.45;;
71806;SDS011;59655;42.590;23.364;2023-12-20T08:44:08;63.28;;;28.02;;
71806;SDS011;59655;42.590;23.364;2023-12-20T08:46:33;69.45;;;30.58;;
71806;SDS011;59655;42.590;23.364;2023-12-20T08:48:59;77.13;;;42.40;;
71806;SDS011;59655;42.590;23.364;2023-12-20T08:51:25;85.93;;;42.40;;
71806;SDS011;59655;42.590;23.364;2023-12-20T08:53:51;78.65;;;38.65;;
71806;SDS011;59655;42.590;23.364;2023-12-20T08:56:16;80.20;;;39.30;;
71806;SDS011;59655;42.590;23.364;2023-12-20T08:58:42;120.82;;;64.72;;
71806;SDS011;59655;42.590;23.364;2023-12-20T09:01:08;99.00;;;51.40;;
71806;SDS011;59655;42.590;23.364;2023-12-20T09:03:34;123.20;;;59.22;;
71806;SDS011;59655;42.590;23.364;2023-12-20T09:05:59;99.50;;;49.10;;
71806;SDS011;59655;42.590;23.364;2023-12-20T09:08:25;90.65;;;45.60;;
71806;SDS011;59655;42.590;23.364;2023-12-20T09:10:50;79.15;;;33.22;;
71806;SDS011;59655;42.590;23.364;2023-12-20T09:13:16;67.57;;;27.33;;
71806;SDS011;59655;42.590;23.364;2023-12-20T09:15:41;48.83;;;23.02;;
71806;SDS011;59655;42.590;23.364;2023-12-20T09:18:06;40.35;;;18.13;;
71806;SDS011;59655;42.590;23.364;2023-12-20T09:20:32;37.15;;;18.02;;
71806;SDS011;59655;42.590;23.364;2023-12-20T09:22:58;41.70;;;24.13;;
71806;SDS011;59655;42.590;23.364;2023-12-20T09:25:23;45.92;;;23.55;;
71806;SDS011;59655;42.590;23.364;2023-12-20T09:27:49;70.40;;;32.08;;
71806;SDS011;59655;42.590;23.364;2023-12-20T09:30:14;120.68;;;48.00;;
71806;SDS011;59655;42.590;23.364;2023-12-20T09:32:39;113.85;;;47.03;;
71806;SDS011;59655;42.590;23.364;2023-12-20T09:35:05;105.10;;;44.53;;
71806;SDS011;59655;42.590;23.364;2023-12-20T09:37:31;110.43;;;44.53;;
71806;SDS011;59655;42.590;23.364;2023-12-20T09:39:57;88.78;;;37.97;;
71806;SDS011;59655;42.590;23.364;2023-12-20T09:44:59;76.70;;;36.08;;
71806;SDS011;59655;42.590;23.364;2023-12-20T09:47:28;63.38;;;28.52;;
71806;SDS011;59655;42.590;23.364;2023-12-20T09:49:54;52.20;;;24.95;;
71806;SDS011;59655;42.590;23.364;2023-12-20T09:52:19;105.25;;;42.15;;
71806;SDS011;59655;42.590;23.364;2023-12-20T09:54:47;106.97;;;46.35;;
71806;SDS011;59655;42.590;23.364;2023-12-20T09:57:14;53.88;;;25.67;;
71806;SDS011;59655;42.590;23.364;2023-12-20T09:59:40;27.17;;;13.35;;
71806;SDS011;59655;42.590;23.364;2023-12-20T10:02:05;20.58;;;10.82;;
71806;SDS011;59655;42.590;23.364;2023-12-20T10:04:39;23.25;;;11.52;;
71806;SDS011;59655;42.590;23.364;2023-12-20T10:07:11;18.27;;;7.55;;
71806;SDS011;59655;42.590;23.364;2023-12-20T10:09:36;10.18;;;4.97;;
71806;SDS011;59655;42.590;23.364;2023-12-20T10:12:02;16.23;;;7.38;;
71806;SDS011;59655;42.590;23.364;2023-12-20T10:14:27;15.95;;;7.57;;
71806;SDS011;59655;42.590;23.364;2023-12-20T10:16:53;15.87;;;7.30;;
71806;SDS011;59655;42.590;23.364;2023-12-20T10:19:19;7.95;;;3.53;;
71806;SDS011;59655;42.590;23.364;2023-12-20T10:21:44;7.00;;;3.53;;
71806;SDS011;59655;42.590;23.364;2023-12-20T10:24:11;6.00;;;3.25;;
71806;SDS011;59655;42.590;23.364;2023-12-20T10:26:42;12.00;;;6.75;;
71806;SDS011;59655;42.590;23.364;2023-12-20T10:29:07;18.67;;;9.45;;
71806;SDS011;59655;42.590;23.364;2023-12-20T10:31:33;17.27;;;9.35;;
71806;SDS011;59655;42.590;23.364;2023-12-20T10:34:00;17.08;;;9.30;;
71806;SDS011;59655;42.590;23.364;2023-12-20T10:36:27;20.13;;;9.35;;
71806;SDS011;59655;42.590;23.364;2023-12-20T10:38:54;19.52;;;9.93;;
71806;SDS011;59655;42.590;23.364;2023-12-20T10:41:32;22.10;;;9.70;;
71806;SDS011;59655;42.590;23.364;2023-12-20T10:46:28;19.40;;;10.52;;
71806;SDS011;59655;42.590;23.364;2023-12-20T10:48:55;12.18;;;6.10;;
71806;SDS011;59655;42.590;23.364;2023-12-20T10:51:21;10.98;;;5.80;;
71806;SDS011;59655;42.590;23.364;2023-12-20T10:53:49;12.45;;;5.93;;
71806;SDS011;59655;42.590;23.364;2023-12-20T10:56:15;14.63;;;6.55;;
71806;SDS011;59655;42.590;23.364;2023-12-20T10:58:43;13.52;;;5.68;;
71806;SDS011;59655;42.590;23.364;2023-12-20T11:01:08;10.07;;;4.82;;
71806;SDS011;59655;42.590;23.364;2023-12-20T11:03:35;10.07;;;4.32;;
71806;SDS011;59655;42.590;23.364;2023-12-20T11:14:20;8.38;;;3.75;;
71806;SDS011;59655;42.590;23.364;2023-12-20T11:16:50;9.98;;;4.00;;
71806;SDS011;59655;42.590;23.364;2023-12-20T11:19:16;8.32;;;4.40;;
71806;SDS011;59655;42.590;23.364;2023-12-20T11:21:41;6.85;;;4.18;;
71806;SDS011;59655;42.590;23.364;2023-12-20T11:24:07;8.90;;;4.22;;
71806;SDS011;59655;42.590;23.364;2023-12-20T11:26:34;10.63;;;6.15;;
71806;SDS011;59655;42.590;23.364;2023-12-20T11:32:00;9.23;;;4.97;;
71806;SDS011;59655;42.590;23.364;2023-12-20T11:34:27;8.68;;;4.22;;
71806;SDS011;59655;42.590;23.364;2023-12-20T11:37:00;7.82;;;4.03;;
71806;SDS011;59655;42.590;23.364;2023-12-20T11:39:27;6.90;;;3.67;;
71806;SDS011;59655;42.590;23.364;2023-12-20T11:41:56;8.38;;;4.57;;
71806;SDS011;59655;42.590;23.364;2023-12-20T11:44:22;9.95;;;4.72;;
71806;SDS011;59655;42.590;23.364;2023-12-20T11:46:48;20.45;;;8.25;;
71806;SDS011;59655;42.590;23.364;2023-12-20T11:49:13;22.05;;;10.77;;
71806;SDS011;59655;42.590;23.364;2023-12-20T11:51:42;31.88;;;13.48;;
71806;SDS011;59655;42.590;23.364;2023-12-20T11:54:07;33.17;;;14.20;;
71806;SDS011;59655;42.590;23.364;2023-12-20T11:56:34;26.05;;;11.65;;
71806;SDS011;59655;42.590;23.364;2023-12-20T11:59:00;25.50;;;11.77;;
71806;SDS011;59655;42.590;23.364;2023-12-20T12:01:26;19.70;;;9.85;;
71806;SDS011;59655;42.590;23.364;2023-12-20T12:04:02;21.27;;;10.88;;
71806;SDS011;59655;42.590;23.364;2023-12-20T12:06:30;21.02;;;10.60;;
71806;SDS011;59655;42.590;23.364;2023-12-20T12:08:56;20.80;;;10.43;;
71806;SDS011;59655;42.590;23.364;2023-12-20T12:11:21;18.52;;;9.27;;
71806;SDS011;59655;42.590;23.364;2023-12-20T12:13:47;16.55;;;8.95;;
71806;SDS011;59655;42.590;23.364;2023-12-20T12:16:16;17.80;;;7.43;;
71806;SDS011;59655;42.590;23.364;2023-12-20T12:18:43;16.55;;;7.20;;
71806;SDS011;59655;42.590;23.364;2023-12-20T12:21:09;16.10;;;6.57;;
71806;SDS011;59655;42.590;23.364;2023-12-20T12:23:34;10.13;;;4.70;;
71806;SDS011;59655;42.590;23.364;2023-12-20T12:26:00;12.38;;;5.13;;
71806;SDS011;59655;42.590;23.364;2023-12-20T12:28:29;8.73;;;4.78;;
71806;SDS011;59655;42.590;23.364;2023-12-20T12:30:59;8.68;;;5.60;;
71806;SDS011;59655;42.590;23.364;2023-12-20T12:33:25;15.30;;;6.65;;
71806;SDS011;59655;42.590;23.364;2023-12-20T12:35:52;12.15;;;6.22;;
71806;SDS011;59655;42.590;23.364;2023-12-20T12:38:20;14.23;;;6.30;;
71806;SDS011;59655;42.590;23.364;2023-12-20T12:40:46;13.27;;;6.32;;
71806;SDS011;59655;42.590;23.364;2023-12-20T12:43:11;14.13;;;6.88;;
71806;SDS011;59655;42.590;23.364;2023-12-20T12:45:37;10.90;;;6.15;;
71806;SDS011;59655;42.590;23.364;2023-12-20T12:48:03;13.73;;;6.50;;
71806;SDS011;59655;42.590;23.364;2023-12-20T12:50:30;12.40;;;5.78;;
71806;SDS011;59655;42.590;23.364;2023-12-20T12:52:56;11.80;;;5.40;;
71806;SDS011;59655;42.590;23.364;2023-12-20T12:55:21;12.10;;;5.18;;
71806;SDS011;59655;42.590;23.364;2023-12-20T12:57:46;10.23;;;4.77;;
71806;SDS011;59655;42.590;23.364;2023-12-20T13:00:12;8.30;;;3.83;;
71806;SDS011;59655;42.590;23.364;2023-12-20T13:02:38;8.77;;;3.35;;
71806;SDS011;59655;42.590;23.364;2023-12-20T13:05:07;7.95;;;3.30;;
71806;SDS011;59655;42.590;23.364;2023-12-20T13:07:33;7.18;;;3.58;;
71806;SDS011;59655;42.590;23.364;2023-12-20T13:09:58;6.65;;;3.22;;
71806;SDS011;59655;42.590;23.364;2023-12-20T13:12:24;6.75;;;3.00;;
71806;SDS011;59655;42.590;23.364;2023-12-20T13:14:49;7.55;;;3.55;;
71806;SDS011;59655;42.590;23.364;2023-12-20T13:17:14;8.68;;;3.95;;
71806;SDS011;59655;42.590;23.364;2023-12-20T13:19:40;8.20;;;4.32;;
71806;SDS011;59655;42.590;23.364;2023-12-20T13:22:05;7.72;;;3.88;;
71806;SDS011;59655;42.590;23.364;2023-12-20T13:24:31;8.57;;;4.38;;
71806;SDS011;59655;42.590;23.364;2023-12-20T13:26:57;9.63;;;4.65;;
71806;SDS011;59655;42.590;23.364;2023-12-20T13:29:23;17.23;;;8.05;;
71806;SDS011;59655;42.590;23.364;2023-12-20T13:31:49;15.63;;;7.57;;
71806;SDS011;59655;42.590;23.364;2023-12-20T13:34:14;13.93;;;6.05;;
71806;SDS011;59655;42.590;23.364;2023-12-20T13:36:42;10.23;;;5.43;;
71806;SDS011;59655;42.590;23.364;2023-12-20T13:39:10;9.43;;;5.35;;
71806;SDS011;59655;42.590;23.364;2023-12-20T13:41:36;16.40;;;9.35;;
71806;SDS011;59655;42.590;23.364;2023-12-20T13:44:01;12.17;;;7.97;;
71806;SDS011;59655;42.590;23.364;2023-12-20T13:46:28;11.38;;;7.13;;
71806;SDS011;59655;42.590;23.364;2023-12-20T13:48:53;16.90;;;9.15;;
71806;SDS011;59655;42.590;23.364;2023-12-20T13:51:19;16.70;;;10.13;;
71806;SDS011;59655;42.590;23.364;2023-12-20T13:53:45;26.77;;;14.00;;
71806;SDS011;59655;42.590;23.364;2023-12-20T13:56:11;73.05;;;34.22;;
71806;SDS011;59655;42.590;23.364;2023-12-20T13:58:36;93.22;;;38.67;;
71806;SDS011;59655;42.590;23.364;2023-12-20T14:01:02;75.60;;;34.35;;
71806;SDS011;59655;42.590;23.364;2023-12-20T14:03:27;69.35;;;31.88;;
71806;SDS011;59655;42.590;23.364;2023-12-20T14:05:52;55.05;;;25.30;;
71806;SDS011;59655;42.590;23.364;2023-12-20T14:08:18;61.15;;;26.73;;
71806;SDS011;59655;42.590;23.364;2023-12-20T14:10:43;103.03;;;37.00;;
71806;SDS011;59655;42.590;23.364;2023-12-20T14:13:08;86.28;;;34.90;;
71806;SDS011;59655;42.590;23.364;2023-12-20T14:15:34;43.80;;;19.73;;
71806;SDS011;59655;42.590;23.364;2023-12-20T14:18:03;41.72;;;19.45;;
71806;SDS011;59655;42.590;23.364;2023-12-20T14:20:31;29.48;;;14.13;;
71806;SDS011;59655;42.590;23.364;2023-12-20T14:22:57;27.45;;;12.82;;
71806;SDS011;59655;42.590;23.364;2023-12-20T14:25:22;23.05;;;11.55;;
71806;SDS011;59655;42.590;23.364;2023-12-20T14:27:48;15.98;;;8.65;;
71806;SDS011;59655;42.590;23.364;2023-12-20T14:30:13;49.10;;;21.40;;
71806;SDS011;59655;42.590;23.364;2023-12-20T14:32:39;66.65;;;26.55;;
71806;SDS011;59655;42.590;23.364;2023-12-20T14:35:05;45.33;;;16.80;;
71806;SDS011;59655;42.590;23.364;2023-12-20T14:37:31;41.22;;;18.48;;
71806;SDS011;59655;42.590;23.364;2023-12-20T14:39:57;41.30;;;17.95;;
71806;SDS011;59655;42.590;23.364;2023-12-20T14:42:22;80.13;;;35.75;;
71806;SDS011;59655;42.590;23.364;2023-12-20T14:44:47;69.97;;;33.35;;
71806;SDS011;59655;42.590;23.364;2023-12-20T14:47:13;73.85;;;32.58;;
71806;SDS011;59655;42.590;23.364;2023-12-20T14:49:40;74.03;;;30.98;;
71806;SDS011;59655;42.590;23.364;2023-12-20T14:52:05;47.63;;;21.73;;
71806;SDS011;59655;42.590;23.364;2023-12-20T14:54:31;27.88;;;12.85;;
71806;SDS011;59655;42.590;23.364;2023-12-20T14:56:57;22.90;;;8.65;;
71806;SDS011;59655;42.590;23.364;2023-12-20T14:59:23;15.35;;;7.30;;
71806;SDS011;59655;42.590;23.364;2023-12-20T15:01:48;50.40;;;20.63;;
71806;SDS011;59655;42.590;23.364;2023-12-20T15:04:13;40.03;;;18.45;;
71806;SDS011;59655;42.590;23.364;2023-12-20T15:06:39;35.35;;;15.27;;
71806;SDS011;59655;42.590;23.364;2023-12-20T15:09:04;36.25;;;17.98;;